Harmony Corners, New York
Current Conditions -  °F | °C
As of 9:51 AM on Monday 24 Nov 2014 (Local Time) from KALB Reporting Station
Overcast Overcast  
Wind Chill: 16°   Ceiling: 800
Heat Index: 16°   Visibility: 9mi
Dew Point: 14°   Wind: 14mph
Humidity: 87%   Direction: 160°SSE
Pressure: 29.59"   Gusts: NA
Location:  43.002°N, 73.8759°W
Report Text: KALB 241451Z 16012KT 9SM BKN008 BKN015 OVC055 16/14 A2959 RMK AO2 RAB12E28 SLP019 BKN008 V SCT P0000 60010 T01610139 58002
Loading
Personal Weather Stations






























Interactive Weather Map New forecast layout! Learn more

10-Day Weather Forecast

Advertisements
Track Severe Weather on mobile